Time;durP1;ratioP1;P1;durP2;ratioP2;P2;SDS_P1;SDS_P2;PMS_P1;PMS_P2;Temp;Humidity;BMP_temperature;BMP_pressure;BME280_temperature;BME280_humidity;BME280_pressure;Samples;Min_cycle;Max_cycle;Signal;HPM_P1;HPM_P2
2022/06/07 00:00:23;;;;;;;0.70;0.60;;;;;;;;;;5055515;28;20434;-77
2022/06/07 00:02:50;;;;;;;0.70;0.70;;;;;;;;;;5055645;28;20963;-76
2022/06/07 00:05:17;;;;;;;0.70;0.63;;;;;;;;;;5055343;28;20459;-77
2022/06/07 00:07:47;;;;;;;0.70;0.70;;;;;;;;;;5043038;28;20496;-77
2022/06/07 00:10:14;;;;;;;0.70;0.60;;;;;;;;;;5034947;28;20507;-77
2022/06/07 00:12:40;;;;;;;0.80;0.73;;;;;;;;;;5052918;28;20483;-77
2022/06/07 00:15:08;;;;;;;0.70;0.60;;;;;;;;;;5055913;28;20937;-76
2022/06/07 00:17:36;;;;;;;0.70;0.70;;;;;;;;;;5053815;28;20949;-76
2022/06/07 00:20:05;;;;;;;0.70;0.60;;;;;;;;;;5055439;28;20597;-76
2022/06/07 00:22:32;;;;;;;0.70;0.60;;;;;;;;;;5042793;28;20460;-76
2022/06/07 00:24:59;;;;;;;0.80;0.70;;;;;;;;;;5035375;28;20461;-77
2022/06/07 00:27:27;;;;;;;0.70;0.63;;;;;;;;;;5034641;28;20429;-77
2022/06/07 00:29:54;;;;;;;0.70;0.60;;;;;;;;;;5051519;28;20448;-78
2022/06/07 00:32:21;;;;;;;0.70;0.70;;;;;;;;;;5048986;28;20983;-78
2022/06/07 00:34:50;;;;;;;0.70;0.70;;;;;;;;;;5051769;28;20427;-77
2022/06/07 00:37:17;;;;;;;0.70;0.60;;;;;;;;;;5054334;28;20452;-78
2022/06/07 00:39:44;;;;;;;0.70;0.70;;;;;;;;;;5053280;28;20443;-77
2022/06/07 00:42:12;;;;;;;0.70;0.70;;;;;;;;;;5052359;28;20447;-78
2022/06/07 00:44:39;;;;;;;0.70;0.60;;;;;;;;;;5054127;28;20595;-78
2022/06/07 00:47:09;;;;;;;0.70;0.60;;;;;;;;;;5054156;28;20476;-78
2022/06/07 00:49:37;;;;;;;0.70;0.60;;;;;;;;;;5056585;28;20505;-77
2022/06/07 00:52:06;;;;;;;0.70;0.60;;;;;;;;;;5037546;28;20455;-78
2022/06/07 00:54:33;;;;;;;0.70;0.70;;;;;;;;;;5037767;28;20946;-77
2022/06/07 00:57:08;;;;;;;0.80;0.80;;;;;;;;;;5038801;28;20445;-78
2022/06/07 00:59:37;;;;;;;0.80;0.80;;;;;;;;;;5036875;28;20481;-78
2022/06/07 01:02:04;;;;;;;0.80;0.70;;;;;;;;;;5053979;28;20458;-78
2022/06/07 01:04:34;;;;;;;0.80;0.70;;;;;;;;;;5052322;28;20476;-78
2022/06/07 01:12:35;;;;;;;0.70;0.70;;;;;;;;;;5055074;28;20819;-77
2022/06/07 01:15:06;;;;;;;0.70;0.60;;;;;;;;;;5053553;28;20482;-78
2022/06/07 01:17:33;;;;;;;0.70;0.70;;;;;;;;;;5052944;28;20447;-78
2022/06/07 01:20:00;;;;;;;0.80;0.70;;;;;;;;;;5037163;28;20982;-77
2022/06/07 01:22:30;;;;;;;0.70;0.60;;;;;;;;;;5057371;28;20462;-77
2022/06/07 01:24:57;;;;;;;0.70;0.70;;;;;;;;;;5035904;28;20471;-78
2022/06/07 01:27:24;;;;;;;0.80;0.80;;;;;;;;;;5053527;28;20464;-78
2022/06/07 01:29:51;;;;;;;0.70;0.60;;;;;;;;;;5053589;28;20492;-78
2022/06/07 01:32:18;;;;;;;0.70;0.70;;;;;;;;;;5036229;28;20455;-78
2022/06/07 01:34:48;;;;;;;0.80;0.80;;;;;;;;;;5052866;28;20446;-78
2022/06/07 01:37:19;;;;;;;0.80;0.70;;;;;;;;;;5063359;28;20474;-78
2022/06/07 01:42:40;;;;;;;0.70;0.70;;;;;;;;;;5073097;28;20481;-77
2022/06/07 01:45:09;;;;;;;0.70;0.70;;;;;;;;;;5050934;28;20808;-78
2022/06/07 01:47:41;;;;;;;0.70;0.67;;;;;;;;;;5043331;28;21042;-78
2022/06/07 01:50:09;;;;;;;0.80;0.70;;;;;;;;;;5042289;28;20455;-78
2022/06/07 01:52:41;;;;;;;0.80;0.70;;;;;;;;;;5036477;28;20464;-78
2022/06/07 01:55:24;;;;;;;0.80;0.80;;;;;;;;;;5052930;28;20498;-77
2022/06/07 01:58:09;;;;;;;0.70;0.70;;;;;;;;;;5052292;28;20463;-78
2022/06/07 02:00:39;;;;;;;0.70;0.60;;;;;;;;;;5052489;28;20533;-78
2022/06/07 02:03:06;;;;;;;0.80;0.80;;;;;;;;;;5052433;28;20453;-79
2022/06/07 02:05:34;;;;;;;0.70;0.70;;;;;;;;;;5052574;28;21017;-78
2022/06/07 02:08:02;;;;;;;0.70;0.60;;;;;;;;;;5052811;28;20482;-78
2022/06/07 02:10:33;;;;;;;0.70;0.70;;;;;;;;;;5034969;28;20485;-76
2022/06/07 02:13:08;;;;;;;0.77;0.70;;;;;;;;;;5072260;28;20953;-77
2022/06/07 02:15:35;;;;;;;0.70;0.70;;;;;;;;;;5053703;28;20458;-78
2022/06/07 02:18:03;;;;;;;0.70;0.70;;;;;;;;;;5035558;28;20504;-77
2022/06/07 02:21:00;;;;;;;0.70;0.60;;;;;;;;;;5049177;28;20461;-78
2022/06/07 02:23:29;;;;;;;0.70;0.60;;;;;;;;;;5033434;28;20469;-79
2022/06/07 02:26:03;;;;;;;0.70;0.70;;;;;;;;;;5031992;28;20475;-78
2022/06/07 02:28:33;;;;;;;0.73;0.70;;;;;;;;;;5034675;28;20479;-78
2022/06/07 02:31:01;;;;;;;0.70;0.70;;;;;;;;;;5051383;28;20449;-77
2022/06/07 02:33:31;;;;;;;0.73;0.70;;;;;;;;;;5052311;28;20444;-78
2022/06/07 02:36:11;;;;;;;0.80;0.70;;;;;;;;;;5052232;28;20838;-77
2022/06/07 02:38:40;;;;;;;0.70;0.60;;;;;;;;;;5052009;28;20548;-79
2022/06/07 02:41:12;;;;;;;0.80;0.77;;;;;;;;;;5052479;28;20538;-77
2022/06/07 02:43:41;;;;;;;0.80;0.80;;;;;;;;;;5040857;28;21008;-78
2022/06/07 02:46:08;;;;;;;0.80;0.70;;;;;;;;;;5032716;28;20509;-76
2022/06/07 02:48:38;;;;;;;0.70;0.70;;;;;;;;;;5050437;28;20440;-77
2022/06/07 02:51:07;;;;;;;0.80;0.70;;;;;;;;;;5051203;28;20456;-77
2022/06/07 02:53:38;;;;;;;0.70;0.60;;;;;;;;;;5036222;28;20931;-77
2022/06/07 02:56:05;;;;;;;0.70;0.70;;;;;;;;;;5052647;28;20416;-79
2022/06/07 02:58:34;;;;;;;0.70;0.70;;;;;;;;;;5053977;28;20451;-77
2022/06/07 03:01:04;;;;;;;0.70;0.70;;;;;;;;;;5072103;28;20438;-77
2022/06/07 03:03:38;;;;;;;0.73;0.70;;;;;;;;;;5071504;28;20911;-77
2022/06/07 03:06:09;;;;;;;0.70;0.70;;;;;;;;;;5053469;28;21048;-77
2022/06/07 03:08:37;;;;;;;0.70;0.60;;;;;;;;;;5051902;28;20480;-76
2022/06/07 03:11:05;;;;;;;0.80;0.80;;;;;;;;;;5051892;28;20470;-77
2022/06/07 03:13:37;;;;;;;0.70;0.70;;;;;;;;;;5051785;28;20851;-78
2022/06/07 03:16:09;;;;;;;0.70;0.70;;;;;;;;;;5051308;28;20461;-78
2022/06/07 03:18:35;;;;;;;0.70;0.60;;;;;;;;;;5050610;28;20458;-78
2022/06/07 03:21:03;;;;;;;0.80;0.80;;;;;;;;;;5015414;28;20480;-78
2022/06/07 03:23:31;;;;;;;0.70;0.70;;;;;;;;;;5032736;28;20538;-77
2022/06/07 03:26:05;;;;;;;0.80;0.77;;;;;;;;;;5041376;28;20452;-78
2022/06/07 03:28:35;;;;;;;0.70;0.70;;;;;;;;;;5054646;28;20451;-78
2022/06/07 03:31:09;;;;;;;0.70;0.70;;;;;;;;;;5053914;28;20458;-77
2022/06/07 03:33:39;;;;;;;0.70;0.70;;;;;;;;;;5047715;28;20457;-78
2022/06/07 03:36:08;;;;;;;0.70;0.70;;;;;;;;;;5055522;28;20464;-77
2022/06/07 03:38:37;;;;;;;0.80;0.70;;;;;;;;;;5047524;28;20456;-78
2022/06/07 03:41:04;;;;;;;0.80;0.80;;;;;;;;;;5040089;28;20536;-76
2022/06/07 03:43:32;;;;;;;0.70;0.70;;;;;;;;;;5055110;28;20871;-77
2022/06/07 03:46:12;;;;;;;0.70;0.70;;;;;;;;;;5054151;28;20472;-78
2022/06/07 03:48:41;;;;;;;0.77;0.70;;;;;;;;;;5050130;28;20458;-77
2022/06/07 03:51:10;;;;;;;0.80;0.70;;;;;;;;;;5055127;28;20508;-77
2022/06/07 03:53:41;;;;;;;0.70;0.70;;;;;;;;;;5055020;28;20533;-77
2022/06/07 03:56:11;;;;;;;0.73;0.70;;;;;;;;;;5055396;28;20445;-77
2022/06/07 03:58:41;;;;;;;0.80;0.80;;;;;;;;;;5055078;28;21009;-77
2022/06/07 04:01:09;;;;;;;0.70;0.70;;;;;;;;;;5051121;28;20486;-77
2022/06/07 04:03:44;;;;;;;0.80;0.70;;;;;;;;;;5037318;28;20454;-77
2022/06/07 04:06:18;;;;;;;0.70;0.60;;;;;;;;;;5050529;28;20474;-78
2022/06/07 04:08:47;;;;;;;0.70;0.70;;;;;;;;;;5054866;28;20436;-78
2022/06/07 04:11:16;;;;;;;0.80;0.80;;;;;;;;;;5054447;28;20551;-77
2022/06/07 04:13:51;;;;;;;0.70;0.60;;;;;;;;;;5054341;28;20803;-77
2022/06/07 04:16:21;;;;;;;0.73;0.70;;;;;;;;;;5051574;28;20458;-76
2022/06/07 04:18:55;;;;;;;0.70;0.60;;;;;;;;;;5052671;28;20456;-78
2022/06/07 04:21:24;;;;;;;0.70;0.60;;;;;;;;;;5038629;28;20493;-77
2022/06/07 04:23:57;;;;;;;0.70;0.60;;;;;;;;;;5052901;28;20950;-77
2022/06/07 04:26:27;;;;;;;0.70;0.70;;;;;;;;;;5036234;28;20558;-76
2022/06/07 04:28:58;;;;;;;0.70;0.67;;;;;;;;;;5037572;28;20432;-77
2022/06/07 04:31:26;;;;;;;0.70;0.67;;;;;;;;;;5053688;28;20515;-77
2022/06/07 04:34:02;;;;;;;0.80;0.70;;;;;;;;;;5052891;28;20971;-76
2022/06/07 04:36:31;;;;;;;0.70;0.67;;;;;;;;;;5053243;28;20524;-77
2022/06/07 04:39:00;;;;;;;0.70;0.70;;;;;;;;;;5053963;28;20432;-76
2022/06/07 04:41:35;;;;;;;0.77;0.77;;;;;;;;;;5038824;28;20489;-77
2022/06/07 04:44:06;;;;;;;0.80;0.80;;;;;;;;;;5053825;28;20439;-78
2022/06/07 04:46:33;;;;;;;0.77;0.77;;;;;;;;;;5037956;28;20829;-77
2022/06/07 04:49:05;;;;;;;0.70;0.60;;;;;;;;;;5054062;28;20561;-76
2022/06/07 04:51:34;;;;;;;0.80;0.77;;;;;;;;;;5033812;28;20559;-77
2022/06/07 04:54:10;;;;;;;0.70;0.70;;;;;;;;;;5050733;28;20458;-78
2022/06/07 04:56:43;;;;;;;0.70;0.70;;;;;;;;;;5053766;28;20863;-77
2022/06/07 04:59:11;;;;;;;0.70;0.67;;;;;;;;;;5054263;28;20439;-77
2022/06/07 05:01:44;;;;;;;0.70;0.70;;;;;;;;;;5052992;28;20474;-76
2022/06/07 05:04:20;;;;;;;0.80;0.70;;;;;;;;;;5054100;28;20542;-77
2022/06/07 05:06:47;;;;;;;0.80;0.70;;;;;;;;;;5055230;28;21070;-77
2022/06/07 05:09:36;;;;;;;0.77;0.70;;;;;;;;;;5056288;28;20451;-76
2022/06/07 05:12:10;;;;;;;0.70;0.60;;;;;;;;;;5040697;28;20515;-76
2022/06/07 05:14:44;;;;;;;0.70;0.60;;;;;;;;;;5054162;28;20879;-76
2022/06/07 05:17:14;;;;;;;0.70;0.70;;;;;;;;;;5054410;28;20436;-77
2022/06/07 05:19:44;;;;;;;0.70;0.70;;;;;;;;;;5053342;28;20976;-76
2022/06/07 05:22:15;;;;;;;0.73;0.70;;;;;;;;;;5038634;28;20483;-76
2022/06/07 05:24:49;;;;;;;0.70;0.70;;;;;;;;;;5038473;28;20564;-76
2022/06/07 05:27:22;;;;;;;0.77;0.70;;;;;;;;;;5055534;28;20439;-76
2022/06/07 05:29:51;;;;;;;0.70;0.70;;;;;;;;;;5057170;28;20477;-76
2022/06/07 05:32:40;;;;;;;0.70;0.70;;;;;;;;;;5048736;28;20451;-76
2022/06/07 05:35:14;;;;;;;0.80;0.70;;;;;;;;;;5056214;28;20444;-77
2022/06/07 05:37:56;;;;;;;0.80;0.70;;;;;;;;;;5056880;28;20459;-78
2022/06/07 05:40:27;;;;;;;0.70;0.60;;;;;;;;;;5057704;28;20442;-76
2022/06/07 05:42:55;;;;;;;0.70;0.70;;;;;;;;;;5055936;28;20468;-75
2022/06/07 05:45:33;;;;;;;0.70;0.60;;;;;;;;;;5039488;28;20558;-75
2022/06/07 05:48:13;;;;;;;0.70;0.70;;;;;;;;;;5053479;28;21019;-75
2022/06/07 05:50:53;;;;;;;0.70;0.60;;;;;;;;;;5038809;28;20443;-75
2022/06/07 05:53:24;;;;;;;0.70;0.70;;;;;;;;;;5054032;28;20473;-75
2022/06/07 05:55:52;;;;;;;0.70;0.60;;;;;;;;;;5055137;28;20439;-74
2022/06/07 05:58:19;;;;;;;0.70;0.70;;;;;;;;;;5055154;28;20459;-76
2022/06/07 06:00:48;;;;;;;0.80;0.70;;;;;;;;;;5053599;28;20442;-76
2022/06/07 06:03:22;;;;;;;0.70;0.70;;;;;;;;;;5053651;28;20941;-76
2022/06/07 06:05:50;;;;;;;0.80;0.80;;;;;;;;;;5053608;28;20479;-76
2022/06/07 06:11:12;;;;;;;0.80;0.73;;;;;;;;;;5055697;28;20474;-75
2022/06/07 06:13:44;;;;;;;0.80;0.70;;;;;;;;;;5037622;28;20953;-76
2022/06/07 06:16:15;;;;;;;0.80;0.70;;;;;;;;;;5054294;28;20430;-75
2022/06/07 06:18:46;;;;;;;0.73;0.70;;;;;;;;;;5054551;28;20954;-76
2022/06/07 06:21:17;;;;;;;0.70;0.63;;;;;;;;;;5054965;28;20465;-76
2022/06/07 06:23:47;;;;;;;0.80;0.80;;;;;;;;;;5055171;28;20505;-76
2022/06/07 06:26:16;;;;;;;0.70;0.60;;;;;;;;;;5053720;28;20556;-76
2022/06/07 06:28:46;;;;;;;0.80;0.70;;;;;;;;;;5053667;28;20448;-77
2022/06/07 06:31:14;;;;;;;0.70;0.60;;;;;;;;;;5053364;28;20824;-77
2022/06/07 06:33:44;;;;;;;0.70;0.70;;;;;;;;;;5053831;28;20451;-76
2022/06/07 06:36:13;;;;;;;0.73;0.70;;;;;;;;;;5054527;28;20470;-76
2022/06/07 06:38:43;;;;;;;0.80;0.70;;;;;;;;;;5053510;28;21026;-76
2022/06/07 06:41:12;;;;;;;0.80;0.70;;;;;;;;;;5053933;28;20495;-77
2022/06/07 06:43:41;;;;;;;0.70;0.70;;;;;;;;;;5054597;28;20440;-77
2022/06/07 06:46:19;;;;;;;0.70;0.60;;;;;;;;;;5054512;28;21062;-77
2022/06/07 06:48:47;;;;;;;0.80;0.70;;;;;;;;;;5053089;28;20441;-77
2022/06/07 06:51:22;;;;;;;0.70;0.70;;;;;;;;;;5037233;28;20494;-75
2022/06/07 06:53:51;;;;;;;0.80;0.70;;;;;;;;;;5053965;28;20954;-75
2022/06/07 06:56:38;;;;;;;0.80;0.80;;;;;;;;;;5052997;28;20974;-76
2022/06/07 06:59:14;;;;;;;0.73;0.70;;;;;;;;;;5037760;28;20445;-78
2022/06/07 07:01:45;;;;;;;0.80;0.80;;;;;;;;;;5054575;28;20464;-77
2022/06/07 07:04:15;;;;;;;0.70;0.70;;;;;;;;;;5053528;28;20452;-77
2022/06/07 07:06:42;;;;;;;0.80;0.70;;;;;;;;;;5038641;28;20479;-76
2022/06/07 07:09:11;;;;;;;0.70;0.70;;;;;;;;;;5053986;28;20440;-75
2022/06/07 07:11:44;;;;;;;1.20;1.10;;;;;;;;;;5055253;28;20477;-75
2022/06/07 07:14:14;;;;;;;0.70;0.70;;;;;;;;;;5035735;28;20817;-76
2022/06/07 07:16:41;;;;;;;0.70;0.60;;;;;;;;;;5053502;28;20415;-76
2022/06/07 07:19:10;;;;;;;0.70;0.60;;;;;;;;;;5052998;28;20448;-76
2022/06/07 07:21:40;;;;;;;0.70;0.60;;;;;;;;;;5036824;28;20464;-76
2022/06/07 07:24:14;;;;;;;0.70;0.63;;;;;;;;;;5054213;28;20785;-78
2022/06/07 07:26:45;;;;;;;0.80;0.70;;;;;;;;;;5054780;28;20466;-79
2022/06/07 07:29:13;;;;;;;0.80;0.70;;;;;;;;;;5034779;28;20444;-77
2022/06/07 07:31:42;;;;;;;0.77;0.70;;;;;;;;;;5050196;28;20437;-79
2022/06/07 07:34:10;;;;;;;0.70;0.60;;;;;;;;;;5049944;28;20441;-78
2022/06/07 07:36:41;;;;;;;0.70;0.60;;;;;;;;;;5036613;28;20462;-76
2022/06/07 07:39:10;;;;;;;0.70;0.63;;;;;;;;;;5036440;28;20422;-77
2022/06/07 07:41:39;;;;;;;0.70;0.60;;;;;;;;;;5035774;28;20942;-78
2022/06/07 07:44:11;;;;;;;0.70;0.60;;;;;;;;;;5051329;28;20478;-77
2022/06/07 07:46:40;;;;;;;0.80;0.70;;;;;;;;;;5036394;28;20439;-77
2022/06/07 07:49:11;;;;;;;0.70;0.60;;;;;;;;;;5052427;28;20424;-77
2022/06/07 07:51:40;;;;;;;0.80;0.80;;;;;;;;;;5052959;28;20459;-76
2022/06/07 07:54:08;;;;;;;0.70;0.60;;;;;;;;;;5035700;28;20975;-78
2022/06/07 07:56:35;;;;;;;0.80;0.70;;;;;;;;;;5036485;28;20466;-76
2022/06/07 07:59:06;;;;;;;0.70;0.67;;;;;;;;;;5052561;28;20465;-78
2022/06/07 08:01:33;;;;;;;0.80;0.70;;;;;;;;;;5052184;28;20436;-77
2022/06/07 08:04:04;;;;;;;0.80;0.70;;;;;;;;;;5052624;28;20459;-74
2022/06/07 08:06:38;;;;;;;0.70;0.60;;;;;;;;;;5053879;28;20473;-77
2022/06/07 08:09:08;;;;;;;0.70;0.70;;;;;;;;;;5053559;28;20461;-76
2022/06/07 08:11:36;;;;;;;0.70;0.70;;;;;;;;;;5057089;28;20449;-76
2022/06/07 08:14:04;;;;;;;0.70;0.70;;;;;;;;;;5057194;28;20434;-77
2022/06/07 08:16:33;;;;;;;0.70;0.60;;;;;;;;;;5048297;28;20453;-76
2022/06/07 08:19:08;;;;;;;0.70;0.70;;;;;;;;;;5042577;28;20394;-78
2022/06/07 08:21:37;;;;;;;0.70;0.70;;;;;;;;;;5055648;28;20455;-75
2022/06/07 08:24:04;;;;;;;0.70;0.60;;;;;;;;;;5055688;28;20443;-76
2022/06/07 08:26:31;;;;;;;0.70;0.60;;;;;;;;;;5056228;28;20479;-76
2022/06/07 08:28:57;;;;;;;0.70;0.60;;;;;;;;;;5055761;28;20434;-78
2022/06/07 08:31:25;;;;;;;0.80;0.80;;;;;;;;;;5055697;28;20800;-76
2022/06/07 08:39:26;;;;;;;0.80;0.70;;;;;;;;;;5055971;28;20403;-74
2022/06/07 08:41:55;;;;;;;0.80;0.70;;;;;;;;;;5038808;28;20474;-77
2022/06/07 08:44:23;;;;;;;0.70;0.60;;;;;;;;;;5054781;28;20428;-77
2022/06/07 08:46:51;;;;;;;0.70;0.60;;;;;;;;;;5056518;28;20566;-75
2022/06/07 08:49:19;;;;;;;0.70;0.60;;;;;;;;;;5056070;28;20814;-77
2022/06/07 08:51:49;;;;;;;0.70;0.60;;;;;;;;;;5056031;28;20546;-78
2022/06/07 08:54:20;;;;;;;0.70;0.60;;;;;;;;;;5056609;28;20420;-77
2022/06/07 08:56:47;;;;;;;0.70;0.60;;;;;;;;;;5055957;28;20418;-79
2022/06/07 08:59:20;;;;;;;0.70;0.60;;;;;;;;;;5071317;28;20454;-78
2022/06/07 09:01:51;;;;;;;0.70;0.60;;;;;;;;;;5054167;28;20492;-76
2022/06/07 09:04:21;;;;;;;0.70;0.60;;;;;;;;;;5054899;28;20418;-77
2022/06/07 09:06:49;;;;;;;0.70;0.60;;;;;;;;;;5053705;28;20497;-78
2022/06/07 09:09:18;;;;;;;0.70;0.60;;;;;;;;;;5054322;28;20436;-78
2022/06/07 09:14:34;;;;;;;0.70;0.60;;;;;;;;;;5055239;28;20422;-78
2022/06/07 09:17:02;;;;;;;0.70;0.60;;;;;;;;;;5053830;28;20419;-78
2022/06/07 09:19:32;;;;;;;0.70;0.70;;;;;;;;;;5054762;28;20424;-77
2022/06/07 09:22:00;;;;;;;0.70;0.60;;;;;;;;;;5055897;28;20430;-78
2022/06/07 09:24:34;;;;;;;0.70;0.60;;;;;;;;;;5054314;28;20423;-78
2022/06/07 09:27:15;;;;;;;0.70;0.60;;;;;;;;;;5034228;28;20501;-77
2022/06/07 09:29:48;;;;;;;0.70;0.60;;;;;;;;;;5050540;28;20403;-78
2022/06/07 09:32:17;;;;;;;0.70;0.60;;;;;;;;;;5053686;28;20760;-78
2022/06/07 09:34:49;;;;;;;0.70;0.60;;;;;;;;;;5070081;28;20451;-78
2022/06/07 09:37:17;;;;;;;0.80;0.70;;;;;;;;;;5053080;28;20452;-78
2022/06/07 09:39:44;;;;;;;0.70;0.60;;;;;;;;;;5036887;28;20457;-76
2022/06/07 09:42:16;;;;;;;0.70;0.60;;;;;;;;;;5054192;28;20452;-77
2022/06/07 09:44:54;;;;;;;0.70;0.60;;;;;;;;;;5053685;28;20464;-76
2022/06/07 09:47:23;;;;;;;0.80;0.60;;;;;;;;;;5054624;28;20848;-77
2022/06/07 09:49:54;;;;;;;0.70;0.70;;;;;;;;;;5053325;28;20429;-77
2022/06/07 09:52:24;;;;;;;0.70;0.60;;;;;;;;;;5053594;28;20866;-78
2022/06/07 09:54:53;;;;;;;0.70;0.60;;;;;;;;;;5053121;28;20989;-77
2022/06/07 09:57:25;;;;;;;0.70;0.60;;;;;;;;;;5052540;28;20444;-78
2022/06/07 09:59:58;;;;;;;0.80;0.70;;;;;;;;;;5053976;28;20436;-78
2022/06/07 10:02:43;;;;;;;0.80;0.70;;;;;;;;;;5034374;28;20461;-77
2022/06/07 10:05:18;;;;;;;0.70;0.60;;;;;;;;;;5035543;28;20440;-75
2022/06/07 10:07:47;;;;;;;0.70;0.60;;;;;;;;;;5033873;28;20472;-75
2022/06/07 10:10:15;;;;;;;0.80;0.70;;;;;;;;;;5050351;28;20404;-77
2022/06/07 10:12:45;;;;;;;0.80;0.70;;;;;;;;;;5050487;28;20411;-76
2022/06/07 10:15:21;;;;;;;0.70;0.60;;;;;;;;;;5044357;28;20436;-79
2022/06/07 10:17:56;;;;;;;0.70;0.60;;;;;;;;;;5053973;28;20448;-77
2022/06/07 10:20:28;;;;;;;0.70;0.60;;;;;;;;;;5055908;28;20508;-79
2022/06/07 10:23:05;;;;;;;0.70;0.60;;;;;;;;;;5053941;28;20450;-76
2022/06/07 10:25:36;;;;;;;0.70;0.50;;;;;;;;;;5054181;28;20793;-79
2022/06/07 10:28:07;;;;;;;0.70;0.60;;;;;;;;;;5053550;28;20847;-75
2022/06/07 10:30:39;;;;;;;0.70;0.50;;;;;;;;;;5054295;28;20464;-76
2022/06/07 10:33:31;;;;;;;0.70;0.60;;;;;;;;;;5052904;28;20953;-79
2022/06/07 10:36:07;;;;;;;0.70;0.60;;;;;;;;;;5056244;28;20452;-79
2022/06/07 10:38:39;;;;;;;0.70;0.60;;;;;;;;;;5038500;28;20439;-78
2022/06/07 10:41:11;;;;;;;0.80;0.70;;;;;;;;;;5053701;28;20459;-79
2022/06/07 10:43:45;;;;;;;0.70;0.60;;;;;;;;;;5039225;28;20444;-78
2022/06/07 10:46:16;;;;;;;0.70;0.60;;;;;;;;;;5055890;28;20436;-78
2022/06/07 10:48:47;;;;;;;0.70;0.60;;;;;;;;;;5054046;28;20417;-78
2022/06/07 10:54:03;;;;;;;0.70;0.60;;;;;;;;;;5055767;28;20745;-79
2022/06/07 10:56:32;;;;;;;0.70;0.60;;;;;;;;;;5054858;28;21003;-77
2022/06/07 10:59:00;;;;;;;0.70;0.60;;;;;;;;;;5055443;28;20416;-78
2022/06/07 11:01:32;;;;;;;0.73;0.70;;;;;;;;;;5036823;28;20526;-76
2022/06/07 11:04:07;;;;;;;0.70;0.60;;;;;;;;;;5053922;28;20415;-73
2022/06/07 11:09:29;;;;;;;0.73;0.60;;;;;;;;;;5054918;28;20501;-76
2022/06/07 11:11:58;;;;;;;0.73;0.67;;;;;;;;;;5054234;28;20447;-77
2022/06/07 11:14:43;;;;;;;0.70;0.60;;;;;;;;;;5052968;28;20424;-76
2022/06/07 11:17:21;;;;;;;0.70;0.60;;;;;;;;;;5055500;28;20791;-76
2022/06/07 11:19:48;;;;;;;0.70;0.60;;;;;;;;;;5041526;28;20460;-76
2022/06/07 11:22:18;;;;;;;0.80;0.70;;;;;;;;;;5033313;28;20472;-75
2022/06/07 11:24:56;;;;;;;0.80;0.70;;;;;;;;;;5035559;28;20900;-76
2022/06/07 11:27:23;;;;;;;0.80;0.70;;;;;;;;;;5055963;28;20518;-75
2022/06/07 11:30:10;;;;;;;0.70;0.70;;;;;;;;;;5054463;28;20403;-77
2022/06/07 11:32:40;;;;;;;0.70;0.60;;;;;;;;;;5057385;28;20398;-77
2022/06/07 11:35:26;;;;;;;0.70;0.70;;;;;;;;;;5056544;28;20401;-75
2022/06/07 11:37:56;;;;;;;0.80;0.70;;;;;;;;;;5055274;28;20490;-76
2022/06/07 11:40:28;;;;;;;0.70;0.60;;;;;;;;;;5052999;28;20444;-77
2022/06/07 11:42:55;;;;;;;0.70;0.60;;;;;;;;;;5036577;28;20444;-76
2022/06/07 11:45:24;;;;;;;0.70;0.60;;;;;;;;;;5056913;28;20409;-76
2022/06/07 11:48:03;;;;;;;0.70;0.70;;;;;;;;;;5059188;28;20551;-75
2022/06/07 11:50:31;;;;;;;0.80;0.70;;;;;;;;;;5058219;28;20443;-74
2022/06/07 11:53:14;;;;;;;0.73;0.70;;;;;;;;;;5039508;28;20999;-75
2022/06/07 11:55:42;;;;;;;0.77;0.70;;;;;;;;;;5053700;28;20523;-72
2022/06/07 11:58:09;;;;;;;0.70;0.70;;;;;;;;;;5055233;28;20947;-74
2022/06/07 12:00:54;;;;;;;0.80;0.70;;;;;;;;;;5055856;28;20944;-72
2022/06/07 12:03:26;;;;;;;0.80;0.70;;;;;;;;;;5055369;28;20805;-73
2022/06/07 12:05:54;;;;;;;0.80;0.70;;;;;;;;;;5055875;28;20800;-74
2022/06/07 12:08:24;;;;;;;0.73;0.70;;;;;;;;;;5056912;28;20459;-73
2022/06/07 12:10:59;;;;;;;0.70;0.60;;;;;;;;;;5056698;28;20769;-72
2022/06/07 12:16:21;;;;;;;0.70;0.60;;;;;;;;;;5049128;28;20451;-73
2022/06/07 12:18:50;;;;;;;0.80;0.70;;;;;;;;;;5071797;28;20476;-72
2022/06/07 12:21:17;;;;;;;0.70;0.60;;;;;;;;;;5055758;28;20973;-72
2022/06/07 12:23:47;;;;;;;0.80;0.77;;;;;;;;;;5055625;28;20497;-72
2022/06/07 12:26:18;;;;;;;0.80;0.67;;;;;;;;;;5054633;28;20428;-72
2022/06/07 12:28:49;;;;;;;0.70;0.60;;;;;;;;;;5053905;28;20462;-74
2022/06/07 12:31:22;;;;;;;0.70;0.60;;;;;;;;;;5056148;28;20421;-74
2022/06/07 12:33:49;;;;;;;0.70;0.60;;;;;;;;;;5037633;28;20444;-73
2022/06/07 12:36:17;;;;;;;0.70;0.63;;;;;;;;;;5054588;28;20482;-74
2022/06/07 12:38:48;;;;;;;0.70;0.63;;;;;;;;;;5055071;28;20447;-74
2022/06/07 12:41:17;;;;;;;0.70;0.70;;;;;;;;;;5055689;28;20482;-73
2022/06/07 12:43:51;;;;;;;0.70;0.60;;;;;;;;;;5055332;28;20387;-73
2022/06/07 12:46:20;;;;;;;0.77;0.70;;;;;;;;;;5056253;28;20440;-72
2022/06/07 12:48:48;;;;;;;0.70;0.60;;;;;;;;;;5055811;28;20431;-72
2022/06/07 12:51:19;;;;;;;0.70;0.60;;;;;;;;;;5054823;28;20431;-74
2022/06/07 12:53:48;;;;;;;0.80;0.70;;;;;;;;;;5051726;28;20448;-73
2022/06/07 12:56:18;;;;;;;0.80;0.73;;;;;;;;;;5054485;28;20442;-73
2022/06/07 12:58:47;;;;;;;0.80;0.70;;;;;;;;;;5054363;28;20531;-73
2022/06/07 13:01:21;;;;;;;0.70;0.60;;;;;;;;;;5038247;28;20450;-73
2022/06/07 13:03:48;;;;;;;0.70;0.60;;;;;;;;;;5055206;28;20390;-73
2022/06/07 13:06:18;;;;;;;0.70;0.60;;;;;;;;;;5054648;28;20453;-72
2022/06/07 13:08:56;;;;;;;0.70;0.70;;;;;;;;;;5054283;28;20505;-72
2022/06/07 13:11:25;;;;;;;0.80;0.70;;;;;;;;;;5055381;28;20822;-72
2022/06/07 13:13:52;;;;;;;0.70;0.70;;;;;;;;;;5055016;28;20424;-74
2022/06/07 13:16:34;;;;;;;0.70;0.60;;;;;;;;;;5070384;28;20440;-73
2022/06/07 13:19:03;;;;;;;0.70;0.70;;;;;;;;;;5055778;28;20493;-73
2022/06/07 13:21:31;;;;;;;0.70;0.70;;;;;;;;;;5055266;28;20521;-74
2022/06/07 13:24:00;;;;;;;0.80;0.70;;;;;;;;;;5054648;28;20443;-74
2022/06/07 13:26:27;;;;;;;0.80;0.70;;;;;;;;;;5053769;28;20426;-73
2022/06/07 13:29:15;;;;;;;0.70;0.60;;;;;;;;;;5053794;28;20462;-74
2022/06/07 13:31:53;;;;;;;0.70;0.70;;;;;;;;;;5053862;28;20424;-73
2022/06/07 13:34:21;;;;;;;0.70;0.60;;;;;;;;;;5069841;28;20495;-74
2022/06/07 13:36:59;;;;;;;0.80;0.70;;;;;;;;;;5054681;28;20844;-75
2022/06/07 13:39:28;;;;;;;0.70;0.60;;;;;;;;;;5056724;28;20424;-74
2022/06/07 13:42:02;;;;;;;0.80;0.70;;;;;;;;;;5038769;28;20468;-74
2022/06/07 13:44:31;;;;;;;0.70;0.60;;;;;;;;;;5029891;28;20842;-73
2022/06/07 13:47:00;;;;;;;0.80;0.70;;;;;;;;;;5042877;28;20495;-74
2022/06/07 13:55:40;;;;;;;0.70;0.70;;;;;;;;;;5033521;28;20415;-75
2022/06/07 13:58:08;;;;;;;0.90;0.90;;;;;;;;;;5050065;28;20480;-73
2022/06/07 14:00:37;;;;;;;0.70;0.60;;;;;;;;;;5053610;28;20407;-73
2022/06/07 14:03:13;;;;;;;0.77;0.67;;;;;;;;;;5053423;28;20509;-74
2022/06/07 14:05:41;;;;;;;0.80;0.70;;;;;;;;;;5054452;28;20826;-75
2022/06/07 14:08:11;;;;;;;0.70;0.60;;;;;;;;;;5053065;28;20438;-74
2022/06/07 14:10:38;;;;;;;0.70;0.60;;;;;;;;;;5052837;28;20960;-74
2022/06/07 14:13:05;;;;;;;0.70;0.60;;;;;;;;;;5054494;28;20435;-74
2022/06/07 14:15:34;;;;;;;0.70;0.70;;;;;;;;;;5053106;28;20423;-74
2022/06/07 14:18:06;;;;;;;0.70;0.60;;;;;;;;;;5054465;28;20441;-75
2022/06/07 14:20:35;;;;;;;0.70;0.60;;;;;;;;;;5053173;28;20448;-74
2022/06/07 14:23:03;;;;;;;0.70;0.60;;;;;;;;;;5053356;28;20443;-73
2022/06/07 14:25:30;;;;;;;0.70;0.60;;;;;;;;;;5052864;28;20543;-74
2022/06/07 14:27:57;;;;;;;0.70;0.60;;;;;;;;;;5039151;28;20479;-75
2022/06/07 14:30:24;;;;;;;0.80;0.70;;;;;;;;;;5053082;28;20399;-75
2022/06/07 14:32:53;;;;;;;0.80;0.70;;;;;;;;;;5035904;28;20451;-74
2022/06/07 14:35:22;;;;;;;0.70;0.60;;;;;;;;;;5054786;28;20791;-76
2022/06/07 14:37:54;;;;;;;0.70;0.60;;;;;;;;;;5036046;28;20535;-73
2022/06/07 14:40:27;;;;;;;0.70;0.63;;;;;;;;;;5036943;28;20963;-73
2022/06/07 14:42:54;;;;;;;0.77;0.70;;;;;;;;;;5053417;28;20507;-74
2022/06/07 14:45:22;;;;;;;0.80;0.70;;;;;;;;;;5071517;28;20474;-75
2022/06/07 14:47:51;;;;;;;0.70;0.60;;;;;;;;;;5055625;28;20463;-75
2022/06/07 14:50:20;;;;;;;0.80;0.70;;;;;;;;;;5053055;28;20491;-75
2022/06/07 14:52:48;;;;;;;0.70;0.60;;;;;;;;;;5054495;28;20500;-76
2022/06/07 14:55:17;;;;;;;0.70;0.60;;;;;;;;;;5054359;28;20439;-75
2022/06/07 14:57:47;;;;;;;0.70;0.60;;;;;;;;;;5053929;28;20436;-75
2022/06/07 15:00:18;;;;;;;0.70;0.60;;;;;;;;;;5035521;28;20456;-76
2022/06/07 15:02:46;;;;;;;0.70;0.60;;;;;;;;;;5052163;28;20467;-75
2022/06/07 15:05:15;;;;;;;0.70;0.60;;;;;;;;;;5054727;28;20792;-74
2022/06/07 15:07:47;;;;;;;0.70;0.60;;;;;;;;;;5052383;28;20452;-75
2022/06/07 15:10:14;;;;;;;0.80;0.67;;;;;;;;;;5053135;28;20949;-75
2022/06/07 15:12:42;;;;;;;0.70;0.60;;;;;;;;;;5036147;28;20540;-78
2022/06/07 15:15:09;;;;;;;0.80;0.70;;;;;;;;;;5036158;28;20475;-77
2022/06/07 15:17:39;;;;;;;0.80;0.70;;;;;;;;;;5039630;28;20425;-75
2022/06/07 15:20:10;;;;;;;0.70;0.60;;;;;;;;;;5042771;28;20479;-77
2022/06/07 15:22:38;;;;;;;0.70;0.60;;;;;;;;;;5071901;28;20980;-77
2022/06/07 15:25:13;;;;;;;0.70;0.60;;;;;;;;;;5064270;28;20424;-76
2022/06/07 15:27:41;;;;;;;0.70;0.50;;;;;;;;;;5064733;28;20519;-79
2022/06/07 15:30:08;;;;;;;0.70;0.60;;;;;;;;;;5066143;28;20499;-76
2022/06/07 15:32:35;;;;;;;0.70;0.57;;;;;;;;;;5066243;28;20438;-77
2022/06/07 15:35:04;;;;;;;0.70;0.50;;;;;;;;;;5062986;28;20450;-76
2022/06/07 15:37:32;;;;;;;0.70;0.50;;;;;;;;;;5041951;28;20968;-76